Terminal Aerodrome Forecast
Issued by NWS

Home | Current Version | Previous Version | Text Only | Print | Product List | Glossary On
Versions: 1 2 3 4 5 6 7 8 9 10 11 12 13 14 15 16 17 18 19 20 21 22 23 24 25 26 27 28 29
136
FTUS46 KLOX 211556 AAB
TAFBUR
TAF AMD
KBUR 211556Z 2116/2212 15006KT P6SM OVC013
     FM211800 16007KT P6SM SCT015 OVC025
     FM212000 18008KT P6SM SCT025 BKN035
     FM220300 VRB03KT P6SM OVC025=

USA.gov is the U.S. government's official web portal to all federal, state and local government web resources and services.